Arcadia, Louisiana
Current Conditions -  °F | °C
As of 11:55 PM on Saturday 22 Nov 2014 (Local Time) from KRSN Reporting Station
Overcast Overcast  
Wind Chill: 60°   Ceiling: 7500
Heat Index: 60°   Visibility: 10mi
Dew Point: 59°   Wind: 6mph
Humidity: 98%   Direction: 140°SE
Pressure: 29.86"   Gusts: NA
Location:  32.55°N, 92.92°W
Report Text: KRSN 230555Z AUTO 14005KT 10SM SCT015 BKN075 OVC090 15/15 A2986 RMK AO2 P0001 60001 T01530150 10178 20153 402180125
Loading
Personal Weather Stations






























Interactive Weather Map New forecast layout! Learn more

10-Day Weather Forecast

Advertisements
Track Severe Weather on mobile